createdAt,value
2022-09-12T00:00:41.085Z,15.2143
2022-09-12T00:01:41.132Z,15.1429
2022-09-12T00:02:41.204Z,15.0714
2022-09-12T00:03:41.209Z,15.0714
2022-09-12T00:04:41.262Z,15.0714
2022-09-12T00:05:41.303Z,15
2022-09-12T00:06:41.350Z,15
2022-09-12T00:07:41.423Z,15
2022-09-12T00:08:41.468Z,15
2022-09-12T00:09:41.490Z,14.9286
2022-09-12T00:10:41.530Z,14.9286
2022-09-12T00:11:41.575Z,14.9286
2022-09-12T00:12:41.642Z,14.8571
2022-09-12T00:13:42.015Z,14.8571
2022-09-12T00:14:41.710Z,14.7857
2022-09-12T00:15:41.772Z,14.7857
2022-09-12T00:16:41.884Z,14.7857
2022-09-12T00:17:41.870Z,14.7143
2022-09-12T00:18:41.954Z,14.7143
2022-09-12T00:19:41.929Z,14.7143
2022-09-12T00:20:41.974Z,14.6429
2022-09-12T00:21:42.023Z,14.6429
2022-09-12T00:22:42.086Z,14.6429
2022-09-12T00:23:42.114Z,14.6429
2022-09-12T00:24:42.160Z,14.5714
2022-09-12T00:25:42.204Z,14.5714
2022-09-12T00:26:42.253Z,14.5714
2022-09-12T00:27:42.318Z,14.5714
2022-09-12T00:28:42.339Z,14.5
2022-09-12T00:29:42.385Z,14.5
2022-09-12T00:30:42.452Z,14.5
2022-09-12T00:31:42.513Z,14.4286
2022-09-12T00:32:42.522Z,14.4286
2022-09-12T00:33:42.564Z,14.4286
2022-09-12T00:34:42.605Z,14.3571
2022-09-12T00:35:42.678Z,14.3571
2022-09-12T00:36:42.721Z,14.3571
2022-09-12T00:37:42.733Z,14.2857
2022-09-12T00:38:42.797Z,14.2857
2022-09-12T00:39:42.910Z,14.2857
2022-09-12T00:40:42.856Z,14.2857
2022-09-12T00:41:42.899Z,14.2857
2022-09-12T00:42:42.942Z,14.2143
2022-09-12T00:43:42.990Z,14.2143
2022-09-12T00:44:43.055Z,14.2143
2022-09-12T00:45:43.150Z,14.2143
2022-09-12T00:46:43.118Z,14.2143
2022-09-12T00:47:43.159Z,14.1429
2022-09-12T00:48:43.239Z,14.1429
2022-09-12T00:49:43.249Z,14.1429
2022-09-12T00:50:43.293Z,14.1429
2022-09-12T00:51:43.344Z,14.1429
2022-09-12T00:52:43.383Z,14.1429
2022-09-12T00:53:43.444Z,14.1429
2022-09-12T00:54:43.467Z,14.1429
2022-09-12T00:55:43.514Z,14.1429
2022-09-12T00:56:43.587Z,14.1429
2022-09-12T00:57:43.614Z,14.1429
2022-09-12T00:58:43.725Z,14.0714
2022-09-12T00:59:43.694Z,14.0714
2022-09-12T01:00:43.824Z,14.1429
2022-09-12T01:01:43.948Z,14.0714
2022-09-12T01:02:43.845Z,14.0714
2022-09-12T01:03:43.863Z,14.0714
2022-09-12T01:04:43.911Z,14.0714
2022-09-12T01:05:43.955Z,14.0714
2022-09-12T01:06:44.018Z,14.0714
2022-09-12T01:07:44.037Z,14
2022-09-12T01:08:44.147Z,14
2022-09-12T01:09:44.143Z,14
2022-09-12T01:10:44.168Z,14
2022-09-12T01:11:44.233Z,14
2022-09-12T01:12:44.262Z,14
2022-09-12T01:13:44.306Z,14
2022-09-12T01:14:44.344Z,14
2022-09-12T01:15:44.392Z,13.9286
2022-09-12T01:16:44.495Z,13.9286
2022-09-12T01:17:44.477Z,13.9286
2022-09-12T01:18:44.613Z,13.9286
2022-09-12T01:19:44.570Z,13.9286
2022-09-12T01:20:44.614Z,13.9286
2022-09-12T01:21:44.674Z,13.9286
2022-09-12T01:22:44.701Z,13.9286
2022-09-12T01:23:44.739Z,13.9286
2022-09-12T01:24:44.777Z,13.8571
2022-09-12T01:25:44.822Z,13.8571
2022-09-12T01:26:44.885Z,13.8571
2022-09-12T01:27:44.907Z,13.8571
2022-09-12T01:28:45.021Z,13.8571
2022-09-12T01:29:44.992Z,13.8571
2022-09-12T01:30:45.060Z,13.7857
2022-09-12T01:31:45.084Z,13.7857
2022-09-12T01:32:45.127Z,13.7857
2022-09-12T01:33:45.195Z,13.7857
2022-09-12T01:34:45.219Z,13.7857
2022-09-12T01:35:45.269Z,13.7143
2022-09-12T01:36:45.315Z,13.7143
2022-09-12T01:37:45.366Z,13.7143
2022-09-12T01:38:45.578Z,13.7143
2022-09-12T01:39:45.487Z,13.7143
2022-09-12T01:40:45.504Z,13.6429
2022-09-12T01:41:45.551Z,13.6429
2022-09-12T01:42:45.618Z,13.6429
2022-09-12T01:43:45.646Z,13.6429
2022-09-12T01:44:45.688Z,13.6429
2022-09-12T01:45:45.825Z,13.5714
2022-09-12T01:46:45.775Z,13.5714
2022-09-12T01:47:45.843Z,13.5714
2022-09-12T01:48:45.928Z,13.5714
2022-09-12T01:49:45.905Z,13.5714
2022-09-12T01:50:45.967Z,13.5714
2022-09-12T01:51:45.984Z,13.5714
2022-09-12T01:52:46.028Z,13.5
2022-09-12T01:53:46.084Z,13.5
2022-09-12T01:54:46.115Z,13.5
2022-09-12T01:55:46.181Z,13.5
2022-09-12T01:56:46.225Z,13.5
2022-09-12T01:57:46.251Z,13.5
2022-09-12T01:58:46.438Z,13.5
2022-09-12T01:59:46.339Z,13.5
2022-09-12T02:00:46.387Z,13.5
2022-09-12T02:01:46.500Z,13.4286
2022-09-12T02:02:46.461Z,13.4286
2022-09-12T02:03:46.508Z,13.4286
2022-09-12T02:04:46.548Z,13.4286
2022-09-12T02:05:46.593Z,13.4286
2022-09-12T02:06:46.656Z,13.4286
2022-09-12T02:07:46.684Z,13.4286
2022-09-12T02:08:46.847Z,13.4286
2022-09-12T02:09:46.768Z,13.3571
2022-09-12T02:10:46.832Z,13.4286
2022-09-12T02:11:46.863Z,13.3571
2022-09-12T02:12:46.921Z,13.3571
2022-09-12T02:13:46.948Z,13.3571
2022-09-12T02:14:46.999Z,13.3571
2022-09-12T02:15:47.040Z,13.3571
2022-09-12T02:16:47.127Z,13.3571
2022-09-12T02:17:47.144Z,13.3571
2022-09-12T02:18:47.298Z,13.3571
2022-09-12T02:19:47.214Z,13.2857
2022-09-12T02:20:48.275Z,13.2857
2022-09-12T02:21:47.333Z,13.2857
2022-09-12T02:22:47.351Z,13.2857
2022-09-12T02:23:47.398Z,13.2857
2022-09-12T02:24:47.440Z,13.2857
2022-09-12T02:25:47.486Z,13.2143
2022-09-12T02:26:47.544Z,13.2143
2022-09-12T02:27:47.562Z,13.2143
2022-09-12T02:28:47.603Z,13.2143
2022-09-12T02:29:47.649Z,13.2143
2022-09-12T02:30:47.717Z,13.2143
2022-09-12T02:31:47.766Z,13.2143
2022-09-12T02:32:47.788Z,13.2143
2022-09-12T02:33:47.831Z,13.2143
2022-09-12T02:34:47.874Z,13.2143
2022-09-12T02:35:47.919Z,13.2143
2022-09-12T02:36:47.985Z,13.1429
2022-09-12T02:37:48.010Z,13.1429
2022-09-12T02:38:48.109Z,13.1429
2022-09-12T02:39:48.202Z,13.1429
2022-09-12T02:40:48.147Z,13.1429
2022-09-12T02:41:48.216Z,13.1429
2022-09-12T02:42:48.234Z,13.1429
2022-09-12T02:43:48.281Z,13.1429
2022-09-12T02:44:48.322Z,13.0714
2022-09-12T02:45:48.447Z,13.0714
2022-09-12T02:46:48.410Z,13.0714
2022-09-12T02:47:48.457Z,13.0714
2022-09-12T02:48:48.530Z,13.0714
2022-09-12T02:49:48.541Z,13.0714
2022-09-12T02:50:48.587Z,13.0714
2022-09-12T02:51:48.632Z,13.0714
2022-09-12T02:52:48.685Z,13.0714
2022-09-12T02:53:48.752Z,13.0714
2022-09-12T02:54:48.767Z,13.0714
2022-09-12T02:55:48.810Z,13
2022-09-12T02:56:48.876Z,13
2022-09-12T02:57:48.914Z,13
2022-09-12T02:58:48.971Z,13
2022-09-12T02:59:48.992Z,13
2022-09-12T03:00:49.040Z,13
2022-09-12T03:01:49.119Z,13
2022-09-12T03:02:49.129Z,13
2022-09-12T03:03:49.196Z,13
2022-09-12T03:04:49.216Z,13
2022-09-12T03:05:49.259Z,12.9286
2022-09-12T03:06:49.309Z,12.9286
2022-09-12T03:07:49.354Z,12.9286
2022-09-12T03:08:49.420Z,12.9286
2022-09-12T03:09:49.463Z,12.9286
2022-09-12T03:10:49.485Z,12.9286
2022-09-12T03:11:49.536Z,12.9286
2022-09-12T03:12:49.604Z,12.9286
2022-09-12T03:13:49.629Z,12.9286
2022-09-12T03:14:49.697Z,12.9286
2022-09-12T03:15:49.720Z,12.9286
2022-09-12T03:16:49.794Z,12.9286
2022-09-12T03:17:49.833Z,12.9286
2022-09-12T03:18:49.849Z,12.9286
2022-09-12T03:19:49.892Z,12.8571
2022-09-12T03:20:49.936Z,12.8571
2022-09-12T03:21:49.981Z,12.8571
2022-09-12T03:22:51.219Z,12.8571
2022-09-12T03:23:50.063Z,12.8571
2022-09-12T03:24:50.109Z,12.8571
2022-09-12T03:25:50.152Z,12.8571
2022-09-12T03:26:50.185Z,12.8571
2022-09-12T03:27:50.251Z,12.7857
2022-09-12T03:28:50.277Z,12.7857
2022-09-12T03:29:50.341Z,12.7857
2022-09-12T03:30:50.410Z,12.7857
2022-09-12T03:31:50.413Z,12.7857
2022-09-12T03:32:50.464Z,12.7857
2022-09-12T03:33:50.556Z,12.7143
2022-09-12T03:34:50.550Z,12.7143
2022-09-12T03:35:50.597Z,12.7143
2022-09-12T03:36:50.645Z,12.7143
2022-09-12T03:37:50.694Z,12.7143
2022-09-12T03:38:50.757Z,12.7143
2022-09-12T03:39:50.835Z,12.7143
2022-09-12T03:40:54.676Z,12.7143
2022-09-12T03:41:50.860Z,12.7143
2022-09-12T03:42:50.927Z,12.7143
2022-09-12T03:43:50.950Z,12.7143
2022-09-12T03:44:51.006Z,12.7143
2022-09-12T03:45:51.107Z,12.6429
2022-09-12T03:46:51.073Z,12.6429
2022-09-12T03:47:51.118Z,12.6429
2022-09-12T03:48:51.169Z,12.6429
2022-09-12T03:49:51.211Z,12.6429
2022-09-12T03:50:51.283Z,12.6429
2022-09-12T03:51:51.304Z,12.6429
2022-09-12T03:52:51.346Z,12.6429
2022-09-12T03:53:51.418Z,12.6429
2022-09-12T03:54:51.450Z,12.6429
2022-09-12T03:55:51.495Z,12.6429
2022-09-12T03:56:51.548Z,12.6429
2022-09-12T03:57:51.564Z,12.5714
2022-09-12T03:58:51.610Z,12.5714
2022-09-12T03:59:51.657Z,12.5714
2022-09-12T04:00:51.754Z,12.5714
2022-09-12T04:01:51.846Z,12.5714
2022-09-12T04:02:51.790Z,12.5
2022-09-12T04:03:51.832Z,12.5714
2022-09-12T04:04:51.875Z,12.5714
2022-09-12T04:05:51.915Z,12.5714
2022-09-12T04:06:51.977Z,12.5714
2022-09-12T04:07:52.039Z,12.5714
2022-09-12T04:08:52.042Z,12.5714
2022-09-12T04:09:52.086Z,12.5714
2022-09-12T04:10:52.125Z,12.5714
2022-09-12T04:11:52.166Z,12.5714
2022-09-12T04:12:52.236Z,12.5
2022-09-12T04:13:52.250Z,12.5
2022-09-12T04:14:52.303Z,12.5
2022-09-12T04:15:52.348Z,12.5
2022-09-12T04:16:52.436Z,12.5
2022-09-12T04:17:52.434Z,12.5
2022-09-12T04:18:52.472Z,12.5
2022-09-12T04:19:52.520Z,12.5
2022-09-12T04:20:52.567Z,12.5
2022-09-12T04:21:52.608Z,12.5
2022-09-12T04:22:52.652Z,12.5
2022-09-12T04:23:52.690Z,12.5
2022-09-12T04:24:52.735Z,12.5
2022-09-12T04:25:52.773Z,12.4286
2022-09-12T04:26:52.823Z,12.4286
2022-09-12T04:27:52.861Z,12.4286
2022-09-12T04:28:52.907Z,12.4286
2022-09-12T04:29:52.949Z,12.4286
2022-09-12T04:30:53.027Z,12.4286
2022-09-12T04:31:53.042Z,12.4286
2022-09-12T04:32:53.080Z,12.4286
2022-09-12T04:33:53.120Z,12.3571
2022-09-12T04:34:53.161Z,12.3571
2022-09-12T04:35:53.201Z,12.3571
2022-09-12T04:36:53.249Z,12.3571
2022-09-12T04:37:53.289Z,12.3571
2022-09-12T04:38:53.331Z,12.3571
2022-09-12T04:39:53.423Z,12.3571
2022-09-12T04:40:53.407Z,12.2857
2022-09-12T04:41:53.451Z,12.2857
2022-09-12T04:42:53.493Z,12.2857
2022-09-12T04:43:53.540Z,12.2857
2022-09-12T04:44:53.585Z,12.2857
2022-09-12T04:45:53.688Z,12.2857
2022-09-12T04:46:53.674Z,12.2857
2022-09-12T04:47:53.718Z,12.2857
2022-09-12T04:48:56.891Z,12.2857
2022-09-12T04:49:53.805Z,12.2857
2022-09-12T04:50:53.851Z,12.2857
2022-09-12T04:51:53.895Z,12.2143
2022-09-12T04:52:53.939Z,12.2857
2022-09-12T04:53:53.981Z,12.2857
2022-09-12T04:54:54.026Z,12.2857
2022-09-12T04:55:54.093Z,12.2857
2022-09-12T04:56:54.107Z,12.2857
2022-09-12T04:57:54.152Z,12.2857
2022-09-12T04:58:54.195Z,12.2857
2022-09-12T04:59:54.236Z,12.2857
2022-09-12T05:00:54.349Z,12.2857
2022-09-12T05:01:54.390Z,12.2857
2022-09-12T05:02:54.376Z,12.2857
2022-09-12T05:03:54.422Z,12.2857
2022-09-12T05:04:54.467Z,12.2857
2022-09-12T05:05:56.326Z,12.3571
2022-09-12T05:06:54.549Z,12.3571
2022-09-12T05:07:54.595Z,12.3571
2022-09-12T05:08:54.642Z,12.3571
2022-09-12T05:09:54.688Z,12.3571
2022-09-12T05:10:54.732Z,12.3571
2022-09-12T05:12:04.674Z,12.3571
2022-09-12T05:12:54.817Z,12.3571
2022-09-12T05:13:54.862Z,12.3571
2022-09-12T05:14:54.903Z,12.3571
2022-09-12T05:15:54.945Z,12.4286
2022-09-12T05:16:55.051Z,12.3571
2022-09-12T05:17:55.030Z,12.3571
2022-09-12T05:18:55.074Z,12.4286
2022-09-12T05:19:55.116Z,12.4286
2022-09-12T05:20:55.162Z,12.4286
2022-09-12T05:21:55.206Z,12.4286
2022-09-12T05:22:55.272Z,12.4286
2022-09-12T05:23:55.288Z,12.4286
2022-09-12T05:24:55.332Z,12.4286
2022-09-12T05:25:55.367Z,12.4286
2022-09-12T05:26:55.416Z,12.5
2022-09-12T05:27:55.451Z,12.5
2022-09-12T05:28:55.491Z,12.5
2022-09-12T05:29:55.539Z,12.5
2022-09-12T05:30:55.617Z,12.5
2022-09-12T05:31:55.636Z,12.5714
2022-09-12T05:32:55.673Z,12.5714
2022-09-12T05:33:55.720Z,12.5714
2022-09-12T05:34:55.770Z,12.5714
2022-09-12T05:35:55.813Z,12.5714
2022-09-12T05:36:55.855Z,12.6429
2022-09-12T05:37:55.906Z,12.6429
2022-09-12T05:38:55.943Z,12.6429
2022-09-12T05:39:56.003Z,12.6429
2022-09-12T05:40:56.024Z,12.6429
2022-09-12T05:41:56.062Z,12.6429
2022-09-12T05:42:56.100Z,12.6429
2022-09-12T05:43:56.141Z,12.6429
2022-09-12T05:44:56.186Z,12.7143
2022-09-12T05:45:56.270Z,12.7143
2022-09-12T05:46:56.266Z,12.7143
2022-09-12T05:47:56.310Z,12.7857
2022-09-12T05:48:56.846Z,12.7857
2022-09-12T05:49:56.392Z,12.7857
2022-09-12T05:50:56.429Z,12.7857
2022-09-12T05:51:56.480Z,12.8571
2022-09-12T05:52:56.519Z,12.8571
2022-09-12T05:53:56.572Z,12.9286
2022-09-12T05:54:56.614Z,12.9286
2022-09-12T05:55:56.652Z,12.9286
2022-09-12T05:56:56.699Z,13
2022-09-12T05:57:56.740Z,13
2022-09-12T05:58:56.780Z,13
2022-09-12T05:59:56.830Z,13.0714
2022-09-12T06:00:56.866Z,13.1429
2022-09-12T06:01:56.993Z,13.1429
2022-09-12T06:02:56.953Z,13.2143
2022-09-12T06:03:57.000Z,13.2857
2022-09-12T06:04:57.072Z,13.2857
2022-09-12T06:05:57.089Z,13.3571
2022-09-12T06:06:57.125Z,13.3571
2022-09-12T06:07:57.169Z,13.3571
2022-09-12T06:08:57.206Z,13.4286
2022-09-12T06:09:57.251Z,13.4286
2022-09-12T06:11:01.703Z,13.5
2022-09-12T06:11:57.335Z,13.5
2022-09-12T06:12:57.380Z,13.5
2022-09-12T06:13:57.426Z,13.5714
2022-09-12T06:14:57.465Z,13.5714
2022-09-12T06:15:57.514Z,13.6429
2022-09-12T06:16:57.597Z,13.6429
2022-09-12T06:17:57.603Z,13.6429
2022-09-12T06:18:57.647Z,13.7143
2022-09-12T06:19:57.682Z,13.7143
2022-09-12T06:20:57.730Z,13.7857
2022-09-12T06:21:57.773Z,13.7857
2022-09-12T06:22:57.816Z,13.8571
2022-09-12T06:23:57.865Z,13.8571
2022-09-12T06:24:58.168Z,13.9286
2022-09-12T06:25:57.954Z,13.9286
2022-09-12T06:26:57.994Z,14
2022-09-12T06:27:58.036Z,14
2022-09-12T06:28:58.075Z,14.0714
2022-09-12T06:29:58.117Z,14.0714
2022-09-12T06:30:58.221Z,14.1429
2022-09-12T06:31:58.202Z,14.1429
2022-09-12T06:32:58.249Z,14.2143
2022-09-12T06:33:58.294Z,14.2857
2022-09-12T06:34:58.338Z,14.2857
2022-09-12T06:35:58.380Z,14.3571
2022-09-12T06:36:58.416Z,14.4286
2022-09-12T06:37:58.453Z,14.5
2022-09-12T06:38:58.495Z,14.5714
2022-09-12T06:39:58.561Z,14.6429
2022-09-12T06:40:58.582Z,14.7857
2022-09-12T06:41:58.618Z,14.8571
2022-09-12T06:42:58.658Z,14.9286
2022-09-12T06:43:58.702Z,15
2022-09-12T06:44:58.736Z,15
2022-09-12T06:45:58.815Z,15.0714
2022-09-12T06:46:58.833Z,15.0714
2022-09-12T06:47:58.869Z,15.1429
2022-09-12T06:48:58.909Z,15.1429
2022-09-12T06:49:58.951Z,15.2143
2022-09-12T06:50:59.006Z,15.3571
2022-09-12T06:51:59.038Z,15.5714
2022-09-12T06:52:59.081Z,15.7857
2022-09-12T06:53:59.116Z,16.1429
2022-09-12T06:54:59.159Z,16.5
2022-09-12T06:55:59.199Z,16.7857
2022-09-12T06:56:59.236Z,17.0714
2022-09-12T06:57:59.270Z,17.2143
2022-09-12T06:58:59.312Z,17.2857
2022-09-12T06:59:59.360Z,17.2857
2022-09-12T07:00:59.592Z,17.2143
2022-09-12T07:01:59.511Z,17.2143
2022-09-12T07:02:59.481Z,17.1429
2022-09-12T07:03:59.522Z,17.1429
2022-09-12T07:04:59.567Z,17.0714
2022-09-12T07:05:59.611Z,17
2022-09-12T07:06:59.651Z,17
2022-09-12T07:07:59.691Z,17
2022-09-12T07:08:59.734Z,16.9286
2022-09-12T07:09:59.776Z,16.8571
2022-09-12T07:10:59.819Z,16.8571
2022-09-12T07:11:59.865Z,16.7857
2022-09-12T07:12:59.908Z,16.7857
2022-09-12T07:13:59.951Z,16.7143
2022-09-12T07:14:59.992Z,16.7143
2022-09-12T07:16:00.039Z,16.6429
2022-09-12T07:17:00.201Z,16.6429
2022-09-12T07:18:00.124Z,16.5714
2022-09-12T07:19:00.164Z,16.5714
2022-09-12T07:20:00.308Z,16.5714
2022-09-12T07:21:00.245Z,16.5714
2022-09-12T07:22:00.322Z,16.5
2022-09-12T07:23:00.322Z,16.5
2022-09-12T07:24:00.376Z,16.5
2022-09-12T07:25:00.414Z,16.5714
2022-09-12T07:26:00.456Z,16.6429
2022-09-12T07:27:00.507Z,16.7857
2022-09-12T07:28:00.534Z,16.8571
2022-09-12T07:29:25.210Z,16.9286
2022-09-12T07:30:00.616Z,16.9286
2022-09-12T07:31:00.699Z,17
2022-09-12T07:32:00.703Z,17
2022-09-12T07:33:00.741Z,17
2022-09-12T07:34:00.783Z,17.0714
2022-09-12T07:35:00.828Z,17.1429
2022-09-12T07:36:00.869Z,17.1429
2022-09-12T07:37:00.912Z,17.1429
2022-09-12T07:38:00.947Z,17.1429
2022-09-12T07:39:00.994Z,17.1429
2022-09-12T07:40:01.057Z,17.1429
2022-09-12T07:41:01.078Z,17.0714
2022-09-12T07:42:01.123Z,17.0714
2022-09-12T07:43:01.166Z,17.0714
2022-09-12T07:44:01.203Z,17.0714
2022-09-12T07:45:01.249Z,17.0714
2022-09-12T07:46:01.312Z,17.0714
2022-09-12T07:47:01.340Z,17
2022-09-12T07:48:01.374Z,17.0714
2022-09-12T07:49:01.419Z,17.0714
2022-09-12T07:50:01.459Z,17.0714
2022-09-12T07:51:01.502Z,17.0714
2022-09-12T07:52:01.543Z,17.0714
2022-09-12T07:53:01.606Z,17.0714
2022-09-12T07:54:01.624Z,17.0714
2022-09-12T07:55:01.674Z,17.0714
2022-09-12T07:56:01.717Z,17.0714
2022-09-12T07:57:01.762Z,17.0714
2022-09-12T07:58:01.837Z,17.0714
2022-09-12T07:59:01.855Z,17.0714
2022-09-12T08:00:01.887Z,17.1429
2022-09-12T08:01:02.031Z,17.1429
2022-09-12T08:02:02.009Z,17.1429
2022-09-12T08:03:02.038Z,17.1429
2022-09-12T08:04:02.058Z,17.1429
2022-09-12T08:05:02.106Z,17.1429
2022-09-12T08:06:02.146Z,17.2143
2022-09-12T08:07:02.188Z,17.2143
2022-09-12T08:08:02.229Z,17.2143
2022-09-12T08:09:02.274Z,17.2143
2022-09-12T08:10:02.316Z,17.2143
2022-09-12T08:11:02.351Z,17.2857
2022-09-12T08:12:02.398Z,17.2857
2022-09-12T08:13:02.437Z,17.2857
2022-09-12T08:14:02.476Z,17.2857
2022-09-12T08:15:02.512Z,17.2857
2022-09-12T08:16:02.614Z,17.2857
2022-09-12T08:17:02.593Z,17.3571
2022-09-12T08:18:02.638Z,17.3571
2022-09-12T08:19:02.680Z,17.3571
2022-09-12T08:20:02.730Z,17.3571
2022-09-12T08:21:02.766Z,17.4286
2022-09-12T08:22:02.806Z,17.4286
2022-09-12T08:23:02.846Z,17.4286
2022-09-12T08:24:02.880Z,17.4286
2022-09-12T08:25:02.921Z,17.5
2022-09-12T08:26:05.891Z,17.5
2022-09-12T08:27:03.009Z,17.5714
2022-09-12T08:28:03.060Z,17.5714
2022-09-12T08:29:03.087Z,17.6429
2022-09-12T08:30:03.151Z,17.6429
2022-09-12T08:31:03.225Z,17.7143
2022-09-12T08:32:03.207Z,17.7143
2022-09-12T08:33:03.250Z,17.7143
2022-09-12T08:34:03.290Z,17.7857
2022-09-12T08:35:03.333Z,17.7857
2022-09-12T08:36:03.373Z,17.7857
2022-09-12T08:37:03.423Z,17.7857
2022-09-12T08:38:03.462Z,17.8571
2022-09-12T08:39:03.498Z,17.8571
2022-09-12T08:40:03.566Z,17.9286
2022-09-12T08:41:03.577Z,17.9286
2022-09-12T08:42:03.675Z,18
2022-09-12T08:43:03.663Z,18
2022-09-12T08:44:03.708Z,18.0714
2022-09-12T08:45:03.795Z,18.0714
2022-09-12T08:46:03.862Z,18.1429
2022-09-12T08:47:03.837Z,18.2143
2022-09-12T08:48:03.879Z,18.2857
2022-09-12T08:49:03.962Z,18.2857
